createdAt,value
2023-05-18T00:01:16.180Z,9.18
2023-05-18T00:03:42.863Z,8.88
2023-05-18T00:06:09.898Z,9.05
2023-05-18T00:08:37.600Z,9.38
2023-05-18T00:11:05.373Z,9.63
2023-05-18T00:13:32.237Z,8.48
2023-05-18T00:15:58.679Z,8.32
2023-05-18T00:18:26.655Z,9.43
2023-05-18T00:20:59.936Z,9.20
2023-05-18T00:23:29.663Z,8.90
2023-05-18T00:26:00.278Z,8.55
2023-05-18T00:28:27.003Z,8.43
2023-05-18T00:30:54.370Z,8.27
2023-05-18T00:33:21.246Z,8.13
2023-05-18T00:35:47.782Z,7.90
2023-05-18T00:38:17.011Z,7.63
2023-05-18T00:40:43.605Z,8.18
2023-05-18T00:43:10.578Z,7.60
2023-05-18T00:45:37.236Z,7.20
2023-05-18T00:48:04.109Z,7.68
2023-05-18T00:50:30.751Z,7.25
2023-05-18T00:52:57.229Z,7.07
2023-05-18T00:55:23.852Z,7.90
2023-05-18T00:57:50.408Z,7.00
2023-05-18T01:00:17.293Z,6.95
2023-05-18T01:02:45.225Z,7.60
2023-05-18T01:05:13.278Z,6.55
2023-05-18T01:07:42.564Z,6.53
2023-05-18T01:10:11.054Z,7.13
2023-05-18T01:13:15.528Z,7.22
2023-05-18T01:15:44.490Z,6.82
2023-05-18T01:18:21.715Z,7.30
2023-05-18T01:21:13.391Z,7.70
2023-05-18T01:24:00.915Z,7.18
2023-05-18T01:26:32.902Z,8.38
2023-05-18T01:29:01.328Z,7.45
2023-05-18T01:31:28.116Z,7.95
2023-05-18T01:33:54.554Z,7.40
2023-05-18T01:36:21.219Z,7.80
2023-05-18T01:38:48.387Z,8.23
2023-05-18T01:41:29.276Z,7.90
2023-05-18T01:44:15.781Z,8.68
2023-05-18T01:47:08.123Z,8.35
2023-05-18T01:49:58.043Z,9.27
2023-05-18T01:52:35.155Z,8.55
2023-05-18T01:55:04.025Z,9.15
2023-05-18T01:57:32.731Z,10.32
2023-05-18T02:00:04.577Z,8.95
2023-05-18T02:02:31.491Z,9.35
2023-05-18T02:04:57.932Z,10.02
2023-05-18T02:07:24.349Z,9.63
2023-05-18T02:09:50.895Z,10.48
2023-05-18T02:12:17.266Z,10.18
2023-05-18T02:14:43.652Z,10.50
2023-05-18T02:17:10.168Z,11.70
2023-05-18T02:19:38.119Z,11.18
2023-05-18T02:22:08.112Z,12.18
2023-05-18T02:24:34.908Z,12.15
2023-05-18T02:27:01.491Z,13.05
2023-05-18T02:29:27.946Z,12.55
2023-05-18T02:31:54.426Z,15.00
2023-05-18T02:34:22.807Z,12.48
2023-05-18T02:36:49.375Z,12.57
2023-05-18T02:39:16.110Z,11.82
2023-05-18T02:41:42.477Z,11.90
2023-05-18T02:44:08.941Z,12.45
2023-05-18T02:46:35.441Z,15.10
2023-05-18T02:49:01.862Z,16.33
2023-05-18T02:51:28.408Z,15.07
2023-05-18T02:53:54.830Z,17.40
2023-05-18T02:56:21.260Z,18.58
2023-05-18T02:58:47.760Z,21.60
2023-05-18T03:01:14.243Z,20.67
2023-05-18T03:03:42.410Z,21.48
2023-05-18T03:06:09.403Z,22.35
2023-05-18T03:08:37.173Z,20.52
2023-05-18T03:11:04.084Z,19.83
2023-05-18T03:13:30.459Z,21.33
2023-05-18T03:15:57.721Z,19.30
2023-05-18T03:18:25.182Z,12.85
2023-05-18T03:20:52.101Z,14.75
2023-05-18T03:23:19.967Z,16.55
2023-05-18T03:25:46.375Z,15.00
2023-05-18T03:28:12.772Z,16.67
2023-05-18T03:30:39.196Z,14.57
2023-05-18T03:33:05.638Z,14.32
2023-05-18T03:35:32.645Z,15.52
2023-05-18T03:37:59.212Z,15.35
2023-05-18T03:40:26.630Z,16.17
2023-05-18T03:42:53.116Z,16.98
2023-05-18T03:45:19.544Z,16.20
2023-05-18T03:47:46.298Z,15.77
2023-05-18T03:50:13.092Z,15.80
2023-05-18T03:52:39.934Z,15.77
2023-05-18T03:55:06.627Z,16.13
2023-05-18T03:57:33.273Z,16.00
2023-05-18T03:59:59.795Z,13.75
2023-05-18T04:02:26.506Z,13.98
2023-05-18T04:04:54.854Z,13.40
2023-05-18T04:07:24.307Z,13.27
2023-05-18T04:09:56.186Z,13.63
2023-05-18T04:12:23.001Z,12.73
2023-05-18T04:14:49.625Z,13.30
2023-05-18T04:17:17.375Z,14.07
2023-05-18T04:19:43.916Z,14.73
2023-05-18T04:22:10.341Z,13.65
2023-05-18T04:24:37.228Z,13.20
2023-05-18T04:27:04.016Z,14.95
2023-05-18T04:29:30.466Z,14.05
2023-05-18T04:32:03.096Z,15.00
2023-05-18T04:34:31.271Z,13.70
2023-05-18T04:37:00.669Z,13.80
2023-05-18T04:39:27.331Z,14.15
2023-05-18T04:41:59.456Z,15.65
2023-05-18T04:44:31.490Z,14.57
2023-05-18T04:46:59.212Z,14.02
2023-05-18T04:49:26.121Z,14.60
2023-05-18T04:51:56.119Z,14.38
2023-05-18T04:54:24.039Z,14.15
2023-05-18T04:56:51.599Z,13.95
2023-05-18T04:59:18.711Z,14.98
2023-05-18T05:01:46.280Z,15.00
2023-05-18T05:04:13.277Z,15.18
2023-05-18T05:06:39.755Z,16.67
2023-05-18T05:09:06.245Z,15.55
2023-05-18T05:11:32.687Z,15.55
2023-05-18T05:13:59.091Z,16.88
2023-05-18T05:16:25.644Z,15.95
2023-05-18T05:18:52.142Z,15.75
2023-05-18T05:21:18.572Z,14.88
2023-05-18T05:23:45.253Z,13.10
2023-05-18T05:26:11.665Z,13.35
2023-05-18T05:28:38.295Z,13.27
2023-05-18T05:31:04.739Z,14.55
2023-05-18T05:33:31.252Z,12.95
2023-05-18T05:35:57.661Z,12.88
2023-05-18T05:38:24.027Z,13.63
2023-05-18T05:40:50.554Z,11.75
2023-05-18T05:43:16.953Z,12.48
2023-05-18T05:45:43.656Z,11.55
2023-05-18T05:48:13.370Z,12.95
2023-05-18T05:50:40.198Z,13.70
2023-05-18T05:53:06.758Z,14.13
2023-05-18T05:55:33.418Z,13.20
2023-05-18T05:57:59.941Z,12.38
2023-05-18T06:00:28.661Z,14.55
2023-05-18T06:02:55.074Z,15.32
2023-05-18T06:05:21.561Z,13.45
2023-05-18T06:07:48.052Z,13.85
2023-05-18T06:10:14.504Z,18.45
2023-05-18T06:12:41.216Z,13.60
2023-05-18T06:15:08.314Z,14.88
2023-05-18T06:17:35.135Z,19.95
2023-05-18T06:20:01.561Z,22.83
2023-05-18T06:22:27.968Z,22.30
2023-05-18T06:24:54.353Z,19.05
2023-05-18T06:27:20.933Z,15.52
2023-05-18T06:29:47.304Z,14.13
2023-05-18T06:32:13.985Z,13.07
2023-05-18T06:34:40.487Z,12.90
2023-05-18T06:37:06.901Z,11.50
2023-05-18T06:39:33.317Z,12.82
2023-05-18T06:41:59.723Z,12.07
2023-05-18T06:44:26.399Z,11.25
2023-05-18T06:46:52.796Z,10.15
2023-05-18T06:49:19.189Z,10.38
2023-05-18T06:51:45.903Z,9.40
2023-05-18T06:54:12.958Z,9.77
2023-05-18T06:56:39.371Z,9.10
2023-05-18T06:59:05.931Z,10.27
2023-05-18T07:01:33.652Z,9.70
2023-05-18T07:04:00.236Z,11.63
2023-05-18T07:06:28.542Z,12.40
2023-05-18T07:08:54.973Z,13.73
2023-05-18T07:11:21.965Z,12.77
2023-05-18T07:13:48.353Z,13.55
2023-05-18T07:16:14.797Z,12.90
2023-05-18T07:18:42.273Z,12.40
2023-05-18T07:21:08.753Z,12.38
2023-05-18T07:23:35.233Z,12.70
2023-05-18T07:26:01.767Z,11.70
2023-05-18T07:28:28.223Z,11.88
2023-05-18T07:30:54.580Z,12.50
2023-05-18T07:33:21.042Z,10.70
2023-05-18T07:35:47.510Z,9.90
2023-05-18T07:38:13.874Z,10.23
2023-05-18T07:40:40.282Z,14.25
2023-05-18T07:43:06.673Z,9.43
2023-05-18T07:45:33.234Z,16.20
2023-05-18T07:48:00.317Z,14.05
2023-05-18T07:50:26.935Z,14.48
2023-05-18T07:52:53.287Z,13.60
2023-05-18T07:55:19.662Z,13.68
2023-05-18T07:57:46.061Z,12.00
2023-05-18T08:00:13.106Z,12.90
2023-05-18T08:02:55.299Z,12.00
2023-05-18T08:05:22.690Z,11.05
2023-05-18T08:07:49.540Z,10.23
2023-05-18T08:10:16.003Z,9.50
2023-05-18T08:12:42.483Z,8.20
2023-05-18T08:15:09.565Z,8.27
2023-05-18T08:17:35.980Z,7.93
2023-05-18T08:20:04.717Z,7.60
2023-05-18T08:22:31.156Z,9.13
2023-05-18T08:25:00.834Z,8.00
2023-05-18T08:27:29.474Z,7.85
2023-05-18T08:29:56.341Z,9.07
2023-05-18T08:32:22.808Z,7.13
2023-05-18T08:34:51.346Z,7.05
2023-05-18T08:37:17.853Z,6.38
2023-05-18T08:39:46.005Z,5.88
2023-05-18T08:42:17.690Z,6.93
2023-05-18T08:44:58.573Z,6.38
2023-05-18T08:47:26.699Z,6.25
2023-05-18T08:49:56.142Z,6.10
2023-05-18T08:52:27.884Z,5.90
2023-05-18T08:54:54.624Z,7.20
2023-05-18T08:57:33.901Z,5.78
2023-05-18T09:00:01.848Z,5.93
2023-05-18T09:02:29.109Z,5.70
2023-05-18T09:04:56.761Z,6.47
2023-05-18T09:07:23.476Z,6.03
2023-05-18T09:09:49.935Z,6.55
2023-05-18T09:12:18.841Z,5.80
2023-05-18T09:14:46.500Z,6.25
2023-05-18T09:17:13.071Z,6.50
2023-05-18T09:19:39.613Z,6.05
2023-05-18T09:22:06.664Z,6.65
2023-05-18T09:24:35.303Z,6.60
2023-05-18T09:27:02.101Z,7.20
2023-05-18T09:29:28.509Z,6.28
2023-05-18T09:31:55.107Z,7.53
2023-05-18T09:34:21.699Z,6.93
2023-05-18T09:36:52.950Z,7.05
2023-05-18T09:39:19.518Z,7.18
2023-05-18T09:41:46.081Z,6.72
2023-05-18T09:44:12.698Z,6.40
2023-05-18T09:46:40.152Z,6.60
2023-05-18T09:49:08.029Z,6.90
2023-05-18T09:51:38.581Z,7.05
2023-05-18T09:54:07.589Z,6.15
2023-05-18T09:56:38.125Z,6.30
2023-05-18T09:59:11.041Z,6.50
2023-05-18T10:01:41.726Z,6.65
2023-05-18T10:04:08.108Z,5.18
2023-05-18T10:06:34.562Z,5.63
2023-05-18T10:09:04.557Z,6.28
2023-05-18T10:11:32.067Z,5.72
2023-05-18T10:13:58.781Z,6.07
2023-05-18T10:16:25.741Z,5.97
2023-05-18T10:18:55.316Z,7.22
2023-05-18T10:21:24.595Z,8.38
2023-05-18T10:23:52.265Z,6.10
2023-05-18T10:26:22.795Z,6.80
2023-05-18T10:28:50.454Z,6.97
2023-05-18T10:31:17.191Z,6.57
2023-05-18T10:33:44.316Z,9.57
2023-05-18T10:36:11.478Z,6.88
2023-05-18T10:38:43.303Z,6.97
2023-05-18T10:41:11.595Z,7.65
2023-05-18T10:43:39.322Z,7.05
2023-05-18T10:46:08.163Z,8.90
2023-05-18T10:48:39.030Z,7.05
2023-05-18T10:51:07.382Z,6.75
2023-05-18T10:53:34.099Z,5.35
2023-05-18T10:56:01.025Z,6.35
2023-05-18T10:58:29.388Z,5.75
2023-05-18T11:00:57.990Z,6.38
2023-05-18T11:03:26.925Z,6.78
2023-05-18T11:06:10.275Z,6.57
2023-05-18T11:09:03.230Z,6.63
2023-05-18T11:11:30.281Z,7.53
2023-05-18T11:14:02.256Z,7.93
2023-05-18T11:16:36.216Z,8.45
2023-05-18T11:19:07.760Z,7.35
2023-05-18T11:21:37.069Z,9.23
2023-05-18T11:24:44.384Z,7.38
2023-05-18T11:27:16.161Z,8.50
2023-05-18T11:29:48.132Z,7.72
2023-05-18T11:32:30.325Z,6.28
2023-05-18T11:34:58.200Z,6.53
2023-05-18T11:37:39.968Z,6.88
2023-05-18T11:40:11.281Z,6.50
2023-05-18T11:42:38.247Z,6.57
2023-05-18T11:45:09.163Z,6.45
2023-05-18T11:47:36.670Z,6.68
2023-05-18T11:50:07.226Z,6.45
2023-05-18T11:52:33.683Z,6.72
2023-05-18T11:55:01.161Z,5.85
2023-05-18T11:57:33.870Z,5.47
2023-05-18T12:00:01.735Z,5.40
2023-05-18T12:02:31.815Z,6.15
2023-05-18T12:05:00.283Z,6.00
2023-05-18T12:07:28.358Z,5.40
2023-05-18T12:10:01.992Z,5.25
2023-05-18T12:12:28.827Z,5.47
2023-05-18T12:15:00.356Z,5.50
2023-05-18T12:17:48.109Z,5.80
2023-05-18T12:20:20.231Z,5.40
2023-05-18T12:22:52.806Z,5.97
2023-05-18T12:25:21.637Z,6.50
2023-05-18T12:27:48.594Z,6.25
2023-05-18T12:30:22.062Z,6.50
2023-05-18T12:32:51.000Z,6.80
2023-05-18T12:35:21.488Z,6.50
2023-05-18T12:37:47.945Z,6.35
2023-05-18T12:40:17.001Z,7.25
2023-05-18T12:42:57.397Z,6.20
2023-05-18T12:45:27.663Z,6.90
2023-05-18T12:47:55.455Z,6.65
2023-05-18T12:50:23.775Z,5.97
2023-05-18T12:52:51.088Z,6.97
2023-05-18T12:55:21.594Z,6.85
2023-05-18T12:58:20.829Z,6.68
2023-05-18T13:00:48.418Z,6.70
2023-05-18T13:03:17.802Z,7.03
2023-05-18T13:05:46.259Z,7.03
2023-05-18T13:08:19.016Z,7.30
2023-05-18T13:10:45.709Z,6.28
2023-05-18T13:13:16.226Z,7.03
2023-05-18T13:15:43.898Z,7.07
2023-05-18T13:18:11.901Z,7.22
2023-05-18T13:20:50.985Z,6.78
2023-05-18T13:23:19.539Z,7.05
2023-05-18T13:25:48.900Z,7.03
2023-05-18T13:28:17.091Z,7.22
2023-05-18T13:30:45.061Z,6.60
2023-05-18T13:33:12.010Z,7.05
2023-05-18T13:35:41.714Z,7.32
2023-05-18T13:38:13.195Z,5.95
2023-05-18T13:40:40.366Z,6.45
2023-05-18T13:43:06.820Z,6.70
2023-05-18T13:45:35.834Z,6.80
2023-05-18T13:48:09.261Z,6.97
2023-05-18T13:50:36.728Z,7.00
2023-05-18T13:53:03.331Z,6.35
2023-05-18T13:55:30.012Z,6.38
2023-05-18T13:57:56.861Z,6.32
2023-05-18T14:00:23.255Z,6.95
2023-05-18T14:02:49.881Z,6.70
2023-05-18T14:05:16.506Z,7.22
2023-05-18T14:07:43.889Z,7.35
2023-05-18T14:10:12.208Z,6.78
2023-05-18T14:12:39.301Z,6.70
2023-05-18T14:15:06.259Z,7.40
2023-05-18T14:17:32.855Z,6.25
2023-05-18T14:19:59.715Z,6.72
2023-05-18T14:22:26.486Z,6.32
2023-05-18T14:24:53.567Z,7.10
2023-05-18T14:27:20.515Z,6.63
2023-05-18T14:29:47.620Z,7.68
2023-05-18T14:32:14.285Z,6.53
2023-05-18T14:34:43.732Z,6.45
2023-05-18T14:37:10.168Z,6.85
2023-05-18T14:39:37.695Z,6.88
2023-05-18T14:42:04.485Z,6.70
2023-05-18T14:44:30.961Z,6.90
2023-05-18T14:46:57.528Z,6.30
2023-05-18T14:49:23.925Z,7.07
2023-05-18T14:51:50.525Z,6.55
2023-05-18T14:54:18.913Z,7.32
2023-05-18T14:56:45.581Z,6.80
2023-05-18T14:59:11.991Z,6.65
2023-05-18T15:01:38.425Z,6.65
2023-05-18T15:04:05.083Z,6.68
2023-05-18T15:06:31.566Z,6.78
2023-05-18T15:08:57.957Z,6.72
2023-05-18T15:11:24.328Z,7.15
2023-05-18T15:13:50.800Z,6.90
2023-05-18T15:16:19.578Z,7.30
2023-05-18T15:18:46.559Z,7.03
2023-05-18T15:21:13.060Z,6.53
2023-05-18T15:23:39.497Z,6.82
2023-05-18T15:26:08.233Z,6.63
2023-05-18T15:28:35.470Z,7.07
2023-05-18T15:31:01.882Z,7.07
2023-05-18T15:33:28.539Z,7.53
2023-05-18T15:35:54.969Z,7.32
2023-05-18T15:38:21.442Z,7.22
2023-05-18T15:40:47.929Z,7.38
2023-05-18T15:43:14.463Z,6.47
2023-05-18T15:45:40.865Z,7.28
2023-05-18T15:48:07.348Z,7.25
2023-05-18T15:50:33.798Z,7.50
2023-05-18T15:53:00.196Z,7.43
2023-05-18T15:55:26.582Z,6.90
2023-05-18T15:57:52.943Z,6.70
2023-05-18T16:00:22.128Z,7.05
2023-05-18T16:02:48.727Z,6.13
2023-05-18T16:05:15.247Z,6.22
2023-05-18T16:07:42.211Z,6.45
2023-05-18T16:10:08.870Z,6.55
2023-05-18T16:12:35.260Z,7.03
2023-05-18T16:15:01.669Z,6.03
2023-05-18T16:17:28.413Z,6.80
2023-05-18T16:19:54.921Z,6.88
2023-05-18T16:22:21.305Z,5.78
2023-05-18T16:24:47.678Z,6.57
2023-05-18T16:27:14.052Z,5.57
2023-05-18T16:29:41.428Z,5.97
2023-05-18T16:32:08.325Z,5.72
2023-05-18T16:34:34.692Z,5.22
2023-05-18T16:37:01.089Z,5.85
2023-05-18T16:39:27.475Z,6.30
2023-05-18T16:41:53.890Z,7.10
2023-05-18T16:44:20.500Z,7.50
2023-05-18T16:46:46.919Z,7.10
2023-05-18T16:49:13.419Z,7.82
2023-05-18T16:51:40.078Z,6.10
2023-05-18T16:54:06.858Z,7.45
2023-05-18T16:56:33.297Z,7.00
2023-05-18T16:58:59.696Z,7.93
2023-05-18T17:01:28.121Z,7.63
2023-05-18T17:03:54.851Z,7.22
2023-05-18T17:06:21.380Z,6.93
2023-05-18T17:08:47.770Z,6.80
2023-05-18T17:11:14.335Z,6.72
2023-05-18T17:13:40.747Z,6.80
2023-05-18T17:16:07.263Z,5.82
2023-05-18T17:18:33.665Z,6.25
2023-05-18T17:21:00.046Z,6.88
2023-05-18T17:23:26.571Z,6.32
2023-05-18T17:26:00.845Z,6.95
2023-05-18T17:28:31.931Z,6.22
2023-05-18T17:30:58.360Z,6.15
2023-05-18T17:33:24.898Z,5.85
2023-05-18T17:35:51.467Z,5.97
2023-05-18T17:38:17.933Z,5.53
2023-05-18T17:40:44.295Z,5.72
2023-05-18T17:43:11.116Z,5.05
2023-05-18T17:45:37.541Z,5.30
2023-05-18T17:48:04.300Z,6.35
2023-05-18T17:50:31.144Z,5.40
2023-05-18T17:52:58.314Z,6.18
2023-05-18T17:55:24.693Z,6.28
2023-05-18T17:57:51.571Z,6.32
2023-05-18T18:00:18.552Z,7.63
2023-05-18T18:02:45.035Z,6.22
2023-05-18T18:05:11.591Z,5.97
2023-05-18T18:07:39.186Z,6.63
2023-05-18T18:10:06.987Z,6.70
2023-05-18T18:12:33.389Z,7.22
2023-05-18T18:14:59.773Z,7.25
2023-05-18T18:17:26.246Z,7.65
2023-05-18T18:19:52.694Z,6.70
2023-05-18T18:22:19.184Z,6.28
2023-05-18T18:24:45.647Z,5.97
2023-05-18T18:27:12.017Z,6.38
2023-05-18T18:29:38.434Z,5.97
2023-05-18T18:32:05.037Z,5.28
2023-05-18T18:34:31.431Z,5.65
2023-05-18T18:36:58.750Z,6.20
2023-05-18T18:39:25.145Z,5.97
2023-05-18T18:41:51.538Z,6.32
2023-05-18T18:44:17.908Z,6.30
2023-05-18T18:46:45.223Z,6.05
2023-05-18T18:49:11.728Z,6.55
2023-05-18T18:51:38.126Z,5.97
2023-05-18T18:54:04.690Z,6.43
2023-05-18T18:56:31.461Z,6.10
2023-05-18T18:58:57.956Z,6.13
2023-05-18T19:01:24.428Z,6.13
2023-05-18T19:03:52.777Z,6.45
2023-05-18T19:06:20.130Z,6.45
2023-05-18T19:08:46.549Z,6.28
2023-05-18T19:11:12.956Z,6.75
2023-05-18T19:13:39.378Z,6.63
2023-05-18T19:16:06.350Z,6.72
2023-05-18T19:18:32.765Z,6.93
2023-05-18T19:21:01.164Z,7.45
2023-05-18T19:23:27.518Z,6.38
2023-05-18T19:25:54.746Z,8.35
2023-05-18T19:28:21.178Z,6.93
2023-05-18T19:30:48.130Z,8.40
2023-05-18T19:33:14.657Z,7.70
2023-05-18T19:35:41.199Z,10.68
2023-05-18T19:38:07.576Z,7.35
2023-05-18T19:40:33.955Z,14.45
2023-05-18T19:43:01.472Z,13.77
2023-05-18T19:45:27.941Z,15.05
2023-05-18T19:47:54.528Z,13.10
2023-05-18T19:50:21.195Z,19.52
2023-05-18T19:52:49.441Z,13.65
2023-05-18T19:55:16.454Z,12.10
2023-05-18T19:57:42.985Z,5.75
2023-05-18T20:00:11.017Z,5.63
2023-05-18T20:02:37.793Z,8.45
2023-05-18T20:05:06.681Z,11.27
2023-05-18T20:07:33.923Z,8.63
2023-05-18T20:10:00.327Z,7.88
2023-05-18T20:12:28.286Z,11.65
2023-05-18T20:14:54.775Z,12.75
2023-05-18T20:17:21.547Z,11.88
2023-05-18T20:19:50.986Z,12.15
2023-05-18T20:22:17.892Z,9.45
2023-05-18T20:24:44.981Z,14.00
2023-05-18T20:27:15.095Z,14.48
2023-05-18T20:29:41.680Z,11.15
2023-05-18T20:32:08.292Z,13.98
2023-05-18T20:34:34.756Z,17.38
2023-05-18T20:37:01.150Z,20.42
2023-05-18T20:39:28.942Z,14.77
2023-05-18T20:41:55.432Z,18.65
2023-05-18T20:44:23.332Z,15.23
2023-05-18T20:46:52.827Z,15.52
2023-05-18T20:49:21.633Z,15.73
2023-05-18T20:51:49.285Z,12.50
2023-05-18T20:54:17.731Z,14.98
2023-05-18T20:56:44.505Z,16.88
2023-05-18T20:59:12.522Z,12.27
2023-05-18T21:01:39.914Z,14.82
2023-05-18T21:04:06.686Z,10.95
2023-05-18T21:06:34.240Z,11.10
2023-05-18T21:09:01.403Z,10.40
2023-05-18T21:11:28.025Z,12.57
2023-05-18T21:13:54.380Z,15.93
2023-05-18T21:16:20.782Z,14.05
2023-05-18T21:18:47.396Z,10.90
2023-05-18T21:21:13.766Z,11.10
2023-05-18T21:23:40.145Z,14.10
2023-05-18T21:26:06.527Z,11.88
2023-05-18T21:28:32.900Z,8.48
2023-05-18T21:30:59.328Z,17.00
2023-05-18T21:33:25.953Z,10.00
2023-05-18T21:35:52.475Z,9.40
2023-05-18T21:38:18.894Z,8.48
2023-05-18T21:40:46.592Z,7.63
2023-05-18T21:43:12.981Z,16.23
2023-05-18T21:45:39.529Z,16.08
2023-05-18T21:48:06.291Z,12.48
2023-05-18T21:50:35.851Z,12.25
2023-05-18T21:53:05.493Z,17.20
2023-05-18T21:55:32.260Z,16.77
2023-05-18T21:57:59.185Z,11.10
2023-05-18T22:00:26.753Z,12.05
2023-05-18T22:02:53.136Z,8.52
2023-05-18T22:05:19.631Z,16.50
2023-05-18T22:07:46.081Z,10.00
2023-05-18T22:10:12.596Z,10.35
2023-05-18T22:12:40.959Z,10.85
2023-05-18T22:15:08.596Z,13.30
2023-05-18T22:17:36.528Z,9.60
2023-05-18T22:20:05.880Z,11.88
2023-05-18T22:22:32.282Z,11.85
2023-05-18T22:24:58.626Z,12.07
2023-05-18T22:27:25.082Z,12.30
2023-05-18T22:29:51.687Z,13.40
2023-05-18T22:32:19.199Z,12.68
2023-05-18T22:34:45.647Z,14.60
2023-05-18T22:37:13.149Z,12.88
2023-05-18T22:39:39.542Z,12.02
2023-05-18T22:42:06.184Z,16.45
2023-05-18T22:44:32.533Z,16.40
2023-05-18T22:46:59.102Z,16.55
2023-05-18T22:49:26.112Z,16.10
2023-05-18T22:51:52.580Z,15.45
2023-05-18T22:54:18.976Z,17.02
2023-05-18T22:56:45.385Z,13.25
2023-05-18T22:59:11.893Z,15.30
2023-05-18T23:01:38.517Z,16.58
2023-05-18T23:04:05.125Z,16.48
2023-05-18T23:06:31.653Z,15.70
2023-05-18T23:09:00.397Z,15.00
2023-05-18T23:11:28.420Z,10.68
2023-05-18T23:13:54.999Z,16.33
2023-05-18T23:16:22.543Z,12.90
2023-05-18T23:18:50.544Z,14.15
2023-05-18T23:21:17.088Z,13.50
2023-05-18T23:23:45.516Z,11.43
2023-05-18T23:26:12.593Z,9.20
2023-05-18T23:28:39.106Z,10.15
2023-05-18T23:31:05.559Z,10.15
2023-05-18T23:33:32.402Z,10.07
2023-05-18T23:36:02.512Z,9.85
2023-05-18T23:38:34.944Z,11.07
2023-05-18T23:41:03.385Z,10.10
2023-05-18T23:43:30.394Z,9.57
2023-05-18T23:45:59.532Z,11.55
2023-05-18T23:48:27.499Z,9.48
2023-05-18T23:50:59.705Z,11.05
2023-05-18T23:53:27.688Z,10.52
2023-05-18T23:55:56.680Z,10.50
2023-05-18T23:58:26.100Z,10.60
